Weather at Camden East / Varty Lake Airport

Public forecast

Using degrees Celsius for public forecast. Weather courtesy of forecast.io.

Closest aviation weather report (METAR) to Camden East / Varty Lake Airport

Closest report is Kingston Norman Rogers Airport, 14.2 nm (26.3 km) SE.

2024/05/21 16:00 (retrieved 51 minutes ago)

CYGK 211600Z 20007KT 120V210 15SM FEW070 BKN250 22/18 A2990 RMK AC1CI4 SLP129 DENSITY ALT 1200FT

Closest aviation forecast (TAF) to Camden East / Varty Lake Airport

Closest forecast is Kingston Norman Rogers Airport, 14.2 nm (26.3 km) SE.

2024/05/21 14:42 (retrieved 2 hours ago)

TAF CYGK 211340Z 2114/2202 VRB03KT P6SM BKN100 FM211700 16010KT P6SM BKN070 TEMPO 2117/2202 P6SM -SHRA BKN050 PROB30 2121/2201 VRB20G30KT 1SM TSRA BR BKN020 OVC050CB RMK NXT FCST BY 212000Z